createdAt,value
2022-09-24T00:01:19.028Z,7.00
2022-09-24T00:03:54.394Z,6.60
2022-09-24T00:06:22.500Z,8.27
2022-09-24T00:08:51.978Z,7.40
2022-09-24T00:11:20.877Z,6.90
2022-09-24T00:13:48.953Z,6.30
2022-09-24T00:16:17.327Z,6.07
2022-09-24T00:18:44.287Z,6.40
2022-09-24T00:21:25.129Z,5.70
2022-09-24T00:23:54.751Z,5.60
2022-09-24T00:26:40.816Z,5.70
2022-09-24T00:29:08.737Z,5.90
2022-09-24T00:31:35.894Z,5.30
2022-09-24T00:34:03.009Z,6.63
2022-09-24T00:36:30.287Z,6.30
2022-09-24T00:38:59.478Z,6.47
2022-09-24T00:41:29.486Z,6.33
2022-09-24T00:43:56.492Z,7.13
2022-09-24T00:46:32.244Z,6.50
2022-09-24T00:49:04.242Z,5.87
2022-09-24T00:51:33.622Z,6.70
2022-09-24T00:54:06.459Z,6.27
2022-09-24T00:56:36.639Z,6.40
2022-09-24T00:59:06.544Z,5.93
2022-09-24T01:01:33.692Z,5.90
2022-09-24T01:04:02.665Z,7.00
2022-09-24T01:06:29.834Z,6.73
2022-09-24T01:08:57.712Z,6.20
2022-09-24T01:12:01.706Z,6.47
2022-09-24T01:14:54.543Z,6.70
2022-09-24T01:17:46.595Z,6.47
2022-09-24T01:20:22.199Z,7.30
2022-09-24T01:23:08.483Z,7.00
2022-09-24T01:25:43.809Z,6.30
2022-09-24T01:28:59.831Z,6.47
2022-09-24T01:31:33.521Z,6.30
2022-09-24T01:34:05.925Z,7.10
2022-09-24T01:36:36.178Z,7.57
2022-09-24T01:39:05.975Z,6.90
2022-09-24T01:41:34.515Z,6.90
2022-09-24T01:44:05.056Z,8.50
2022-09-24T01:46:32.029Z,8.33
2022-09-24T01:48:59.531Z,7.80
2022-09-24T01:51:30.963Z,7.73
2022-09-24T01:54:03.686Z,9.00
2022-09-24T01:56:33.535Z,8.27
2022-09-24T01:59:12.643Z,8.27
2022-09-24T02:01:50.277Z,8.13
2022-09-24T02:04:20.412Z,8.50
2022-09-24T02:07:02.619Z,9.40
2022-09-24T02:09:33.549Z,8.77
2022-09-24T02:12:07.086Z,8.63
2022-09-24T02:14:38.960Z,8.73
2022-09-24T02:17:07.176Z,9.30
2022-09-24T02:19:37.841Z,9.30
2022-09-24T02:22:08.116Z,9.17
2022-09-24T02:24:44.644Z,9.67
2022-09-24T02:27:11.206Z,9.37
2022-09-24T02:29:37.725Z,8.67
2022-09-24T02:32:06.685Z,10.40
2022-09-24T02:34:38.391Z,9.40
2022-09-24T02:37:10.831Z,8.20
2022-09-24T02:39:37.334Z,8.50
2022-09-24T02:42:05.845Z,9.67
2022-09-24T02:44:33.804Z,9.60
2022-09-24T02:47:00.788Z,9.80
2022-09-24T02:49:27.617Z,8.07
2022-09-24T02:51:54.324Z,9.33
2022-09-24T02:54:21.769Z,8.67
2022-09-24T02:56:48.471Z,10.23
2022-09-24T02:59:15.286Z,9.67
2022-09-24T03:01:41.873Z,9.67
2022-09-24T03:04:08.675Z,10.10
2022-09-24T03:06:35.163Z,9.50
2022-09-24T03:09:03.806Z,10.27
2022-09-24T03:11:31.967Z,9.47
2022-09-24T03:13:59.643Z,10.60
2022-09-24T03:16:26.493Z,10.90
2022-09-24T03:18:52.968Z,11.00
2022-09-24T03:21:21.626Z,11.80
2022-09-24T03:23:48.395Z,11.60
2022-09-24T03:26:15.095Z,12.53
2022-09-24T03:28:41.538Z,12.63
2022-09-24T03:31:08.957Z,13.00
2022-09-24T03:33:44.813Z,12.83
2022-09-24T03:36:15.389Z,13.77
2022-09-24T03:38:43.226Z,12.77
2022-09-24T03:41:11.098Z,13.03
2022-09-24T03:43:37.868Z,14.33
2022-09-24T03:46:08.474Z,17.03
2022-09-24T03:48:37.061Z,17.03
2022-09-24T03:51:05.766Z,16.13
2022-09-24T03:53:38.826Z,16.13
2022-09-24T03:56:07.358Z,14.93
2022-09-24T03:58:37.409Z,14.60
2022-09-24T04:01:05.073Z,14.10
2022-09-24T04:03:36.367Z,15.77
2022-09-24T04:06:03.852Z,14.37
2022-09-24T04:08:31.952Z,15.87
2022-09-24T04:11:00.982Z,15.80
2022-09-24T04:13:28.369Z,17.27
2022-09-24T04:15:55.695Z,17.00
2022-09-24T04:18:22.582Z,14.63
2022-09-24T04:20:49.503Z,13.37
2022-09-24T04:23:15.934Z,14.27
2022-09-24T04:25:42.412Z,13.20
2022-09-24T04:28:10.473Z,13.77
2022-09-24T04:30:38.071Z,13.20
2022-09-24T04:33:05.047Z,13.50
2022-09-24T04:35:35.413Z,12.70
2022-09-24T04:38:04.259Z,12.97
2022-09-24T04:40:31.717Z,12.43
2022-09-24T04:42:58.915Z,12.47
2022-09-24T04:45:26.740Z,13.80
2022-09-24T04:47:57.277Z,15.13
2022-09-24T04:50:26.465Z,14.87
2022-09-24T04:52:54.109Z,14.53
2022-09-24T04:55:21.219Z,15.30
2022-09-24T04:57:48.211Z,15.67
2022-09-24T05:00:17.726Z,14.83
2022-09-24T05:02:45.235Z,16.73
2022-09-24T05:05:12.425Z,17.40
2022-09-24T05:07:39.861Z,16.53
2022-09-24T05:10:06.853Z,16.20
2022-09-24T05:12:35.336Z,15.03
2022-09-24T05:15:02.859Z,15.53
2022-09-24T05:17:29.809Z,15.97
2022-09-24T05:19:57.866Z,15.27
2022-09-24T05:22:27.449Z,16.87
2022-09-24T05:24:54.317Z,16.40
2022-09-24T05:27:23.204Z,17.13
2022-09-24T05:29:50.364Z,17.73
2022-09-24T05:32:19.236Z,17.27
2022-09-24T05:34:46.819Z,17.20
2022-09-24T05:37:14.640Z,16.37
2022-09-24T05:39:41.162Z,16.40
2022-09-24T05:42:10.154Z,16.37
2022-09-24T05:44:40.739Z,16.30
2022-09-24T05:47:07.363Z,15.63
2022-09-24T05:49:33.894Z,15.47
2022-09-24T05:52:02.921Z,16.10
2022-09-24T05:54:30.676Z,15.47
2022-09-24T05:56:57.372Z,15.67
2022-09-24T05:59:24.942Z,16.27
2022-09-24T06:01:52.218Z,16.80
2022-09-24T06:04:18.856Z,16.27
2022-09-24T06:06:45.273Z,17.07
2022-09-24T06:09:11.881Z,17.33
2022-09-24T06:11:40.722Z,16.30
2022-09-24T06:14:08.507Z,16.87
2022-09-24T06:16:35.414Z,17.60
2022-09-24T06:19:04.176Z,17.93
2022-09-24T06:21:31.117Z,17.87
2022-09-24T06:23:57.961Z,15.60
2022-09-24T06:26:26.290Z,18.03
2022-09-24T06:28:52.791Z,18.27
2022-09-24T06:31:19.307Z,18.30
2022-09-24T06:33:45.907Z,18.87
2022-09-24T06:36:12.344Z,17.90
2022-09-24T06:38:41.805Z,18.50
2022-09-24T06:41:10.100Z,18.77
2022-09-24T06:43:36.677Z,16.50
2022-09-24T06:46:03.852Z,17.83
2022-09-24T06:48:31.213Z,17.80
2022-09-24T06:51:02.792Z,19.07
2022-09-24T06:53:29.925Z,18.33
2022-09-24T06:56:00.090Z,19.57
2022-09-24T06:58:27.716Z,19.43
2022-09-24T07:00:59.096Z,17.10
2022-09-24T07:03:27.853Z,18.60
2022-09-24T07:05:54.981Z,19.07
2022-09-24T07:08:21.956Z,16.67
2022-09-24T07:10:54.980Z,18.17
2022-09-24T07:13:22.060Z,16.67
2022-09-24T07:15:50.208Z,15.07
2022-09-24T07:18:17.505Z,16.70
2022-09-24T07:20:43.999Z,15.87
2022-09-24T07:23:12.741Z,14.53
2022-09-24T07:25:39.371Z,16.53
2022-09-24T07:28:11.403Z,16.13
2022-09-24T07:30:39.051Z,14.80
2022-09-24T07:33:07.476Z,14.53
2022-09-24T07:35:36.849Z,14.10
2022-09-24T07:38:06.800Z,14.20
2022-09-24T07:40:35.280Z,15.27
2022-09-24T07:43:03.909Z,15.67
2022-09-24T07:45:32.382Z,14.63
2022-09-24T07:48:00.442Z,14.33
2022-09-24T07:50:29.870Z,16.77
2022-09-24T07:52:56.868Z,15.03
2022-09-24T07:55:24.228Z,15.13
2022-09-24T07:57:52.525Z,14.33
2022-09-24T08:00:20.651Z,14.73
2022-09-24T08:02:48.207Z,13.83
2022-09-24T08:05:18.029Z,14.10
2022-09-24T08:07:55.409Z,15.53
2022-09-24T08:10:23.553Z,13.57
2022-09-24T08:12:50.472Z,14.67
2022-09-24T08:15:17.083Z,15.67
2022-09-24T08:17:43.504Z,14.43
2022-09-24T08:20:10.785Z,15.07
2022-09-24T08:22:37.250Z,14.30
2022-09-24T08:25:04.719Z,16.73
2022-09-24T08:27:32.917Z,15.03
2022-09-24T08:30:00.921Z,16.00
2022-09-24T08:32:30.101Z,15.53
2022-09-24T08:34:56.529Z,15.20
2022-09-24T08:37:22.974Z,14.90
2022-09-24T08:39:49.444Z,15.73
2022-09-24T08:42:34.093Z,14.73
2022-09-24T08:45:22.314Z,14.87
2022-09-24T08:47:50.133Z,14.37
2022-09-24T08:50:23.339Z,14.37
2022-09-24T08:53:12.993Z,15.17
2022-09-24T08:55:52.944Z,14.63
2022-09-24T08:58:29.302Z,16.10
2022-09-24T09:01:17.045Z,16.80
2022-09-24T09:03:52.332Z,15.97
2022-09-24T09:06:36.851Z,15.73
2022-09-24T09:09:07.740Z,16.03
2022-09-24T09:11:39.118Z,16.77
2022-09-24T09:14:14.916Z,15.57
2022-09-24T09:16:55.583Z,16.73
2022-09-24T09:19:28.055Z,15.70
2022-09-24T09:22:05.246Z,16.40
2022-09-24T09:24:51.788Z,16.93
2022-09-24T09:27:19.861Z,18.17
2022-09-24T09:29:56.110Z,18.97
2022-09-24T09:32:28.293Z,19.80
2022-09-24T09:35:05.743Z,20.57
2022-09-24T09:37:38.687Z,19.70
2022-09-24T09:40:39.005Z,21.30
2022-09-24T09:43:11.063Z,18.83
2022-09-24T09:45:55.068Z,18.93
2022-09-24T09:48:26.108Z,18.60
2022-09-24T09:51:00.541Z,18.70
2022-09-24T09:53:31.586Z,20.67
2022-09-24T09:55:58.201Z,21.63
2022-09-24T09:58:27.202Z,22.13
2022-09-24T10:01:07.418Z,22.03
2022-09-24T10:03:47.133Z,21.43
2022-09-24T10:06:35.494Z,21.13
2022-09-24T10:09:16.506Z,19.70
2022-09-24T10:11:43.787Z,22.63
2022-09-24T10:14:13.373Z,20.07
2022-09-24T10:16:42.683Z,20.60
2022-09-24T10:19:20.341Z,19.23
2022-09-24T10:21:46.918Z,19.07
2022-09-24T10:24:23.267Z,18.47
2022-09-24T10:26:50.263Z,19.00
2022-09-24T10:29:38.219Z,17.30
2022-09-24T10:32:06.667Z,16.50
2022-09-24T10:34:36.899Z,17.03
2022-09-24T10:37:13.371Z,15.23
2022-09-24T10:39:39.786Z,15.40
2022-09-24T10:42:07.890Z,14.57
2022-09-24T10:44:37.244Z,14.33
2022-09-24T10:47:26.638Z,13.77
2022-09-24T10:50:19.643Z,13.97
2022-09-24T10:52:52.751Z,14.33
2022-09-24T10:55:55.418Z,13.90
2022-09-24T10:58:41.480Z,12.43
2022-09-24T11:01:28.377Z,12.57
2022-09-24T11:04:18.020Z,12.10
2022-09-24T11:07:17.962Z,11.57
2022-09-24T11:09:57.928Z,11.63
2022-09-24T11:12:40.982Z,11.87
2022-09-24T11:15:31.813Z,12.20
2022-09-24T11:18:36.735Z,13.60
2022-09-24T11:21:03.313Z,12.93
2022-09-24T11:23:43.771Z,13.03
2022-09-24T11:26:29.276Z,15.53
2022-09-24T11:28:59.004Z,13.70
2022-09-24T11:31:46.247Z,12.77
2022-09-24T11:34:24.566Z,14.67
2022-09-24T11:37:09.921Z,15.97
2022-09-24T11:39:55.136Z,15.90
2022-09-24T11:42:29.794Z,13.73
2022-09-24T11:44:56.330Z,13.33
2022-09-24T11:47:30.473Z,13.03
2022-09-24T11:50:25.613Z,13.00
2022-09-24T11:52:59.332Z,12.27
2022-09-24T11:55:34.323Z,12.63
2022-09-24T11:58:18.311Z,13.20
2022-09-24T12:00:59.207Z,12.43
2022-09-24T12:03:57.036Z,12.47
2022-09-24T12:06:31.057Z,12.23
2022-09-24T12:09:07.543Z,12.73
2022-09-24T12:11:54.874Z,12.53
2022-09-24T12:14:25.467Z,13.27
2022-09-24T12:16:56.946Z,13.00
2022-09-24T12:19:48.189Z,12.23
2022-09-24T12:22:19.001Z,12.67
2022-09-24T12:24:51.196Z,13.03
2022-09-24T12:27:25.528Z,13.37
2022-09-24T12:30:23.866Z,12.13
2022-09-24T12:33:03.280Z,11.50
2022-09-24T12:35:55.169Z,12.70
2022-09-24T12:38:33.864Z,11.43
2022-09-24T12:41:27.851Z,12.70
2022-09-24T12:44:12.178Z,12.83
2022-09-24T12:46:41.372Z,13.10
2022-09-24T12:49:23.181Z,12.37
2022-09-24T12:51:50.099Z,18.77
2022-09-24T12:54:35.348Z,15.43
2022-09-24T12:57:26.369Z,13.67
2022-09-24T13:00:00.677Z,15.97
2022-09-24T13:02:31.687Z,15.80
2022-09-24T13:05:03.483Z,13.67
2022-09-24T13:07:40.493Z,12.93
2022-09-24T13:10:15.979Z,15.10
2022-09-24T13:12:43.187Z,14.57
2022-09-24T13:15:40.448Z,15.20
2022-09-24T13:18:10.115Z,13.73
2022-09-24T13:20:38.744Z,13.83
2022-09-24T13:23:19.569Z,13.83
2022-09-24T13:25:56.536Z,14.20
2022-09-24T13:28:38.416Z,14.00
2022-09-24T13:31:27.231Z,13.60
2022-09-24T13:34:20.390Z,14.03
2022-09-24T13:37:03.173Z,14.30
2022-09-24T13:39:40.106Z,13.43
2022-09-24T13:42:28.699Z,13.97
2022-09-24T13:44:57.765Z,14.60
2022-09-24T13:47:51.665Z,14.03
2022-09-24T13:50:23.648Z,14.17
2022-09-24T13:52:55.471Z,13.93
2022-09-24T13:55:31.787Z,14.70
2022-09-24T13:57:58.932Z,19.53
2022-09-24T14:00:27.658Z,15.00
2022-09-24T14:02:58.602Z,15.93
2022-09-24T14:05:27.048Z,13.77
2022-09-24T14:08:02.067Z,14.80
2022-09-24T14:10:28.656Z,13.83
2022-09-24T14:13:22.839Z,14.67
2022-09-24T14:15:57.365Z,15.40
2022-09-24T14:18:26.393Z,15.17
2022-09-24T14:21:04.306Z,15.40
2022-09-24T14:23:38.255Z,13.73
2022-09-24T14:26:06.163Z,14.03
2022-09-24T14:28:35.052Z,14.73
2022-09-24T14:31:08.515Z,14.23
2022-09-24T14:33:40.168Z,14.80
2022-09-24T14:36:11.954Z,13.90
2022-09-24T14:38:58.432Z,14.07
2022-09-24T14:41:30.332Z,13.77
2022-09-24T14:44:26.175Z,13.33
2022-09-24T14:46:58.151Z,13.13
2022-09-24T14:49:26.768Z,12.37
2022-09-24T14:51:56.252Z,13.10
2022-09-24T14:54:37.059Z,14.43
2022-09-24T14:57:36.182Z,14.37
2022-09-24T15:00:03.495Z,12.60
2022-09-24T15:02:37.155Z,14.80
2022-09-24T15:05:07.736Z,14.60
2022-09-24T15:07:35.380Z,13.90
2022-09-24T15:10:04.836Z,14.03
2022-09-24T15:12:35.314Z,14.07
2022-09-24T15:15:16.777Z,14.50
2022-09-24T15:17:47.097Z,14.97
2022-09-24T15:20:14.052Z,15.17
2022-09-24T15:22:40.562Z,14.07
2022-09-24T15:25:07.733Z,14.87
2022-09-24T15:27:38.672Z,14.20
2022-09-24T15:30:07.999Z,12.93
2022-09-24T15:32:37.688Z,14.10
2022-09-24T15:35:09.406Z,15.30
2022-09-24T15:37:39.393Z,14.97
2022-09-24T15:40:09.237Z,12.77
2022-09-24T15:42:38.708Z,13.23
2022-09-24T15:45:15.136Z,14.43
2022-09-24T15:47:41.577Z,15.27
2022-09-24T15:50:12.378Z,14.83
2022-09-24T15:52:50.509Z,17.70
2022-09-24T15:55:19.075Z,17.07
2022-09-24T15:57:46.797Z,17.77
2022-09-24T16:00:24.048Z,17.27
2022-09-24T16:02:54.248Z,16.97
2022-09-24T16:05:21.597Z,16.77
2022-09-24T16:07:48.482Z,16.60
2022-09-24T16:10:16.536Z,17.37
2022-09-24T16:12:43.832Z,18.63
2022-09-24T16:15:15.644Z,18.47
2022-09-24T16:17:42.589Z,18.17
2022-09-24T16:20:09.959Z,17.83
2022-09-24T16:22:37.127Z,17.70
2022-09-24T16:25:03.948Z,18.07
2022-09-24T16:27:32.386Z,18.30
2022-09-24T16:29:58.934Z,19.23
2022-09-24T16:32:26.293Z,19.43
2022-09-24T16:34:54.773Z,19.70
2022-09-24T16:37:21.467Z,20.67
2022-09-24T16:39:48.001Z,21.00
2022-09-24T16:42:14.489Z,19.90
2022-09-24T16:44:41.036Z,19.77
2022-09-24T16:47:07.749Z,20.63
2022-09-24T16:49:35.640Z,21.47
2022-09-24T16:52:02.975Z,22.73
2022-09-24T16:54:31.192Z,23.57
2022-09-24T16:56:57.968Z,24.23
2022-09-24T16:59:24.466Z,24.33
2022-09-24T17:01:51.009Z,21.70
2022-09-24T17:04:17.514Z,22.60
2022-09-24T17:06:47.172Z,22.43
2022-09-24T17:09:36.496Z,22.63
2022-09-24T17:12:03.129Z,21.60
2022-09-24T17:14:30.495Z,20.37
2022-09-24T17:16:56.945Z,20.27
2022-09-24T17:19:23.615Z,22.57
2022-09-24T17:21:50.348Z,21.70
2022-09-24T17:24:21.582Z,21.87
2022-09-24T17:26:48.696Z,21.20
2022-09-24T17:29:15.254Z,20.90
2022-09-24T17:31:41.840Z,21.77
2022-09-24T17:34:12.230Z,23.93
2022-09-24T17:36:38.698Z,22.10
2022-09-24T17:39:05.789Z,21.30
2022-09-24T17:41:33.285Z,19.13
2022-09-24T17:44:00.332Z,23.37
2022-09-24T17:46:29.328Z,23.57
2022-09-24T17:48:58.231Z,26.17
2022-09-24T17:51:32.927Z,26.70
2022-09-24T17:54:02.223Z,29.40
2022-09-24T17:56:32.170Z,28.33
2022-09-24T17:58:59.398Z,25.70
2022-09-24T18:01:28.556Z,24.33
2022-09-24T18:03:57.253Z,25.73
2022-09-24T18:06:28.119Z,24.77
2022-09-24T18:08:56.983Z,23.63
2022-09-24T18:11:26.156Z,23.40
2022-09-24T18:13:55.239Z,23.50
2022-09-24T18:16:24.606Z,21.03
2022-09-24T18:18:51.451Z,23.20
2022-09-24T18:21:20.937Z,21.27
2022-09-24T18:23:48.017Z,24.93
2022-09-24T18:26:22.838Z,25.00
2022-09-24T18:28:51.472Z,24.37
2022-09-24T18:31:20.398Z,24.33
2022-09-24T18:33:48.908Z,25.10
2022-09-24T18:36:18.440Z,25.27
2022-09-24T18:38:45.076Z,24.70
2022-09-24T18:41:18.426Z,26.77
2022-09-24T18:43:44.965Z,27.27
2022-09-24T18:46:13.905Z,26.50
2022-09-24T18:48:42.765Z,27.03
2022-09-24T18:51:25.732Z,28.87
2022-09-24T18:53:54.307Z,28.73
2022-09-24T18:56:21.881Z,24.07
2022-09-24T18:58:48.467Z,25.77
2022-09-24T19:01:15.528Z,28.70
2022-09-24T19:03:43.333Z,24.40
2022-09-24T19:06:12.791Z,25.50
2022-09-24T19:08:40.079Z,22.43
2022-09-24T19:11:10.207Z,23.40
2022-09-24T19:13:38.774Z,25.97
2022-09-24T19:16:11.417Z,29.63
2022-09-24T19:18:39.029Z,31.13
2022-09-24T19:21:06.852Z,32.33
2022-09-24T19:23:43.308Z,30.23
2022-09-24T19:26:11.267Z,30.60
2022-09-24T19:28:40.943Z,29.70
2022-09-24T19:31:13.547Z,31.87
2022-09-24T19:33:40.595Z,30.67
2022-09-24T19:36:08.057Z,30.57
2022-09-24T19:38:35.791Z,31.30
2022-09-24T19:41:26.159Z,31.07
2022-09-24T19:43:54.665Z,29.97
2022-09-24T19:46:25.615Z,31.83
2022-09-24T19:48:53.662Z,30.47
2022-09-24T19:51:31.751Z,28.87
2022-09-24T19:54:03.335Z,30.60
2022-09-24T19:56:32.571Z,30.63
2022-09-24T19:59:03.350Z,31.50
2022-09-24T20:01:32.520Z,30.50
2022-09-24T20:04:03.730Z,31.67
2022-09-24T20:06:33.669Z,31.10
2022-09-24T20:09:01.781Z,32.10
2022-09-24T20:11:32.746Z,32.13
2022-09-24T20:14:01.029Z,31.70
2022-09-24T20:16:28.152Z,30.83
2022-09-24T20:18:57.613Z,31.00
2022-09-24T20:21:32.388Z,29.57
2022-09-24T20:23:59.436Z,26.97
2022-09-24T20:26:45.595Z,26.47
2022-09-24T20:29:13.625Z,25.17
2022-09-24T20:31:41.813Z,25.53
2022-09-24T20:34:09.181Z,26.03
2022-09-24T20:36:36.610Z,24.80
2022-09-24T20:39:06.348Z,24.00
2022-09-24T20:41:33.704Z,23.43
2022-09-24T20:44:00.950Z,20.93
2022-09-24T20:46:29.510Z,21.10
2022-09-24T20:48:58.968Z,19.50
2022-09-24T20:51:28.193Z,20.37
2022-09-24T20:53:55.416Z,19.57
2022-09-24T20:56:22.403Z,19.57
2022-09-24T20:58:50.603Z,17.47
2022-09-24T21:01:17.682Z,17.37
2022-09-24T21:03:45.633Z,17.40
2022-09-24T21:06:13.243Z,17.57
2022-09-24T21:08:42.230Z,16.77
2022-09-24T21:11:18.091Z,16.87
2022-09-24T21:13:49.904Z,15.87
2022-09-24T21:16:19.804Z,15.57
2022-09-24T21:18:47.680Z,15.90
2022-09-24T21:21:20.124Z,16.73
2022-09-24T21:23:49.492Z,15.43
2022-09-24T21:26:31.215Z,15.87
2022-09-24T21:29:05.453Z,15.10
2022-09-24T21:31:33.776Z,15.57
2022-09-24T21:34:01.095Z,15.97
2022-09-24T21:36:30.160Z,16.70
2022-09-24T21:39:15.642Z,16.50
2022-09-24T21:41:43.255Z,17.07
2022-09-24T21:44:12.805Z,17.20
2022-09-24T21:46:40.511Z,17.30
2022-09-24T21:49:07.289Z,18.40
2022-09-24T21:51:34.275Z,17.83
2022-09-24T21:54:05.027Z,18.47
2022-09-24T21:56:35.050Z,19.03
2022-09-24T21:59:23.393Z,19.60
2022-09-24T22:01:50.047Z,21.23
2022-09-24T22:04:16.715Z,20.83
2022-09-24T22:06:43.207Z,21.17
2022-09-24T22:09:10.281Z,22.10
2022-09-24T22:11:37.733Z,24.47
2022-09-24T22:14:05.868Z,24.40
2022-09-24T22:16:35.536Z,25.47
2022-09-24T22:19:04.843Z,24.80
2022-09-24T22:21:32.530Z,26.27
2022-09-24T22:23:59.473Z,28.53
2022-09-24T22:26:26.572Z,28.63
2022-09-24T22:28:53.857Z,28.17
2022-09-24T22:31:20.516Z,27.53
2022-09-24T22:34:05.622Z,28.27
2022-09-24T22:36:33.818Z,28.23
2022-09-24T22:39:03.294Z,26.60
2022-09-24T22:41:31.051Z,26.37
2022-09-24T22:43:58.314Z,27.63
2022-09-24T22:46:26.967Z,26.67
2022-09-24T22:48:54.850Z,27.30
2022-09-24T22:51:22.349Z,26.60
2022-09-24T22:53:48.841Z,28.07
2022-09-24T22:56:18.014Z,27.77
2022-09-24T22:58:49.791Z,28.27
2022-09-24T23:01:22.492Z,28.00
2022-09-24T23:03:51.039Z,27.37
2022-09-24T23:06:18.643Z,27.67
2022-09-24T23:08:45.075Z,26.57
2022-09-24T23:11:14.468Z,26.70
2022-09-24T23:13:43.451Z,26.40
2022-09-24T23:16:18.207Z,26.50
2022-09-24T23:18:47.072Z,26.97
2022-09-24T23:21:16.440Z,25.63
2022-09-24T23:23:43.689Z,26.47
2022-09-24T23:26:17.082Z,27.00
2022-09-24T23:28:50.580Z,27.03
2022-09-24T23:31:17.914Z,25.50
2022-09-24T23:33:44.498Z,26.50
2022-09-24T23:36:13.583Z,25.70
2022-09-24T23:38:41.131Z,26.50
2022-09-24T23:41:09.159Z,26.67
2022-09-24T23:43:36.099Z,26.67
2022-09-24T23:46:05.039Z,28.57
2022-09-24T23:48:32.499Z,27.03
2022-09-24T23:50:59.617Z,28.10
2022-09-24T23:53:26.735Z,29.47
2022-09-24T23:55:53.991Z,29.70
2022-09-24T23:58:22.110Z,30.07
